createdAt,value
2017-11-24T00:00:04.765Z,791.35
2017-11-24T00:00:08.950Z,791.36
2017-11-24T00:00:13.110Z,791.37
2017-11-24T00:00:17.380Z,791.36
2017-11-24T00:00:21.636Z,791.35
2017-11-24T00:00:25.896Z,791.35
2017-11-24T00:00:30.280Z,791.3
2017-11-24T00:00:34.597Z,791.31
2017-11-24T00:00:38.515Z,791.35
2017-11-24T00:00:42.764Z,791.3
2017-11-24T00:00:47.037Z,791.34
2017-11-24T00:00:51.293Z,791.34
2017-11-24T00:00:55.438Z,791.35
2017-11-24T00:00:59.695Z,791.32
2017-11-24T00:01:04.157Z,791.33
2017-11-24T00:01:08.536Z,791.32
2017-11-24T00:01:12.701Z,791.33
2017-11-24T00:01:16.958Z,791.33
2017-11-24T00:01:21.333Z,791.32
2017-11-24T00:01:25.515Z,791.31
2017-11-24T00:01:29.428Z,791.36
2017-11-24T00:01:33.677Z,791.34
2017-11-24T00:01:37.961Z,791.34
2017-11-24T00:01:42.113Z,791.32
2017-11-24T00:01:46.380Z,791.33
2017-11-24T00:01:50.672Z,791.31
2017-11-24T00:01:54.955Z,791.25
2017-11-24T00:01:59.343Z,791.29
2017-11-24T00:02:03.757Z,791.32
2017-11-24T00:02:07.912Z,791.3
2017-11-24T00:02:12.062Z,791.33
2017-11-24T00:02:16.253Z,791.32
2017-11-24T00:02:20.518Z,791.33
2017-11-24T00:02:24.681Z,791.32
2017-11-24T00:02:29.051Z,791.33
2017-11-24T00:02:33.433Z,791.28
2017-11-24T00:02:37.680Z,791.29
2017-11-24T00:02:42.065Z,791.32
2017-11-24T00:02:46.463Z,791.3
2017-11-24T00:02:50.845Z,791.3
2017-11-24T00:02:55.234Z,791.3
2017-11-24T00:02:59.399Z,791.31
2017-11-24T00:03:03.556Z,791.28
2017-11-24T00:03:07.949Z,791.33
2017-11-24T00:03:12.219Z,791.24
2017-11-24T00:03:16.369Z,791.23
2017-11-24T00:03:20.745Z,791.25
2017-11-24T00:03:24.898Z,791.27
2017-11-24T00:03:29.161Z,791.29
2017-11-24T00:03:33.451Z,791.29
2017-11-24T00:03:37.824Z,791.29
2017-11-24T00:03:42.111Z,791.27
2017-11-24T00:03:46.483Z,791.28
2017-11-24T00:03:50.854Z,791.27
2017-11-24T00:03:55.145Z,791.27
2017-11-24T00:03:59.537Z,791.23
2017-11-24T00:04:03.795Z,791.24
2017-11-24T00:04:08.083Z,791.26
2017-11-24T00:04:12.483Z,791.26
2017-11-24T00:04:16.853Z,791.24
2017-11-24T00:04:21.235Z,791.26
2017-11-24T00:04:25.390Z,791.25
2017-11-24T00:04:29.752Z,791.28
2017-11-24T00:04:34.023Z,791.25
2017-11-24T00:04:38.219Z,791.27
2017-11-24T00:04:42.605Z,791.28
2017-11-24T00:04:46.867Z,791.21
2017-11-24T00:04:51.252Z,791.26
2017-11-24T00:04:55.517Z,791.27
2017-11-24T00:04:59.799Z,791.25
2017-11-24T00:05:03.959Z,791.24
2017-11-24T00:05:08.339Z,791.26
2017-11-24T00:05:12.602Z,791.21
2017-11-24T00:05:16.986Z,791.23
2017-11-24T00:05:21.358Z,791.22
2017-11-24T00:05:25.731Z,791.23
2017-11-24T00:05:29.772Z,791.26
2017-11-24T00:05:34.033Z,791.23
2017-11-24T00:05:38.468Z,791.23
2017-11-24T00:05:42.498Z,791.25
2017-11-24T00:05:46.898Z,791.2
2017-11-24T00:05:51.290Z,791.2
2017-11-24T00:05:55.491Z,791.16
2017-11-24T00:05:59.752Z,791.23
2017-11-24T00:06:04.505Z,791.24
2017-11-24T00:06:08.765Z,791.25
2017-11-24T00:06:12.807Z,791.24
2017-11-24T00:06:16.957Z,791.22
2017-11-24T00:06:21.332Z,791.18
2017-11-24T00:06:25.700Z,791.23
2017-11-24T00:06:29.753Z,791.22
2017-11-24T00:06:34.125Z,791.23
2017-11-24T00:06:38.405Z,791.21
2017-11-24T00:06:42.789Z,791.22
2017-11-24T00:06:47.238Z,791.2
2017-11-24T00:06:51.497Z,791.2
2017-11-24T00:06:55.649Z,791.21
2017-11-24T00:07:00.024Z,791.23
2017-11-24T00:07:04.697Z,791.21
2017-11-24T00:07:09.058Z,791.21
2017-11-24T00:07:13.201Z,791.22
2017-11-24T00:07:17.474Z,791.17
2017-11-24T00:07:21.629Z,791.21
2017-11-24T00:07:25.890Z,791.22
2017-11-24T00:07:30.150Z,791.21
2017-11-24T00:07:34.420Z,791.24
2017-11-24T00:07:38.694Z,791.18
2017-11-24T00:07:42.961Z,791.21
2017-11-24T00:07:47.340Z,791.23
2017-11-24T00:07:51.710Z,791.22
2017-11-24T00:07:56.111Z,791.21
2017-11-24T00:08:00.381Z,791.24
2017-11-24T00:08:04.956Z,791.23
2017-11-24T00:08:09.236Z,791.21
2017-11-24T00:08:13.615Z,791.21
2017-11-24T00:08:17.864Z,791.2
2017-11-24T00:08:22.146Z,791.22
2017-11-24T00:08:26.401Z,791.21
2017-11-24T00:08:30.769Z,791.19
2017-11-24T00:08:35.144Z,791.21
2017-11-24T00:08:39.409Z,791.2
2017-11-24T00:08:43.796Z,791.19
2017-11-24T00:08:48.072Z,791.19
2017-11-24T00:08:52.334Z,791.17
2017-11-24T00:08:56.578Z,791.17
2017-11-24T00:09:00.980Z,791.19
2017-11-24T00:09:05.419Z,791.17
2017-11-24T00:09:09.684Z,791.2
2017-11-24T00:09:14.090Z,791.16
2017-11-24T00:09:18.470Z,791.2
2017-11-24T00:09:22.727Z,791.16
2017-11-24T00:09:27.001Z,791.18
2017-11-24T00:09:31.286Z,791.18
2017-11-24T00:09:35.671Z,791.17
2017-11-24T00:09:39.942Z,791.19
2017-11-24T00:09:44.203Z,791.15
2017-11-24T00:09:48.345Z,791.15
2017-11-24T00:09:52.500Z,791.16
2017-11-24T00:09:56.786Z,791.16
2017-11-24T00:10:01.158Z,791.16
2017-11-24T00:10:05.489Z,791.14
2017-11-24T00:10:09.763Z,791.17
2017-11-24T00:10:13.808Z,791.15
2017-11-24T00:10:18.186Z,791.17
2017-11-24T00:10:22.458Z,791.12
2017-11-24T00:10:26.825Z,791.11
2017-11-24T00:10:31.206Z,791.13
2017-11-24T00:10:35.283Z,791.15
2017-11-24T00:10:39.650Z,791.13
2017-11-24T00:10:44.024Z,791.14
2017-11-24T00:10:48.405Z,791.14
2017-11-24T00:10:52.669Z,791.11
2017-11-24T00:10:56.927Z,791.15
2017-11-24T00:11:01.325Z,791.12
2017-11-24T00:11:05.698Z,791.17
2017-11-24T00:11:09.846Z,791.16
2017-11-24T00:11:14.123Z,791.12
2017-11-24T00:11:18.376Z,791.08
2017-11-24T00:11:22.632Z,791.11
2017-11-24T00:11:27.024Z,791.11
2017-11-24T00:11:31.273Z,791.17
2017-11-24T00:11:35.549Z,791.14
2017-11-24T00:11:39.825Z,791.16
2017-11-24T00:11:44.250Z,791.15
2017-11-24T00:11:48.412Z,791.16
2017-11-24T00:11:52.672Z,791.16
2017-11-24T00:11:57.084Z,791.16
2017-11-24T00:12:01.237Z,791.15
2017-11-24T00:12:05.790Z,791.12
2017-11-24T00:12:10.039Z,791.1
2017-11-24T00:12:14.415Z,791.16
2017-11-24T00:12:18.681Z,791.13
2017-11-24T00:12:22.815Z,791.13
2017-11-24T00:12:27.072Z,791.15
2017-11-24T00:12:31.228Z,791.15
2017-11-24T00:12:35.294Z,791.15
2017-11-24T00:12:39.423Z,791.18
2017-11-24T00:12:43.795Z,791.11
2017-11-24T00:12:48.056Z,791.12
2017-11-24T00:12:52.109Z,791.16
2017-11-24T00:12:56.478Z,791.13
2017-11-24T00:13:00.860Z,791.13
2017-11-24T00:13:05.475Z,791.15
2017-11-24T00:13:09.629Z,791.11
2017-11-24T00:13:13.902Z,791.15
2017-11-24T00:13:18.151Z,791.05
2017-11-24T00:13:22.526Z,791.09
2017-11-24T00:13:26.925Z,791.1
2017-11-24T00:13:35.452Z,791.14
2017-11-24T00:13:39.848Z,791.12
2017-11-24T00:13:43.989Z,791.12
2017-11-24T00:13:48.382Z,791.14
2017-11-24T00:13:52.651Z,791.11
2017-11-24T00:13:57.027Z,791.13
2017-11-24T00:14:01.402Z,791.12
2017-11-24T00:14:05.831Z,791.13
2017-11-24T00:14:10.219Z,791.13
2017-11-24T00:14:14.486Z,791.12
2017-11-24T00:14:18.754Z,791.09
2017-11-24T00:14:23.146Z,791.12
2017-11-24T00:14:27.400Z,791.14
2017-11-24T00:14:31.549Z,791.15
2017-11-24T00:14:35.946Z,791.12
2017-11-24T00:14:39.988Z,791.13
2017-11-24T00:14:44.273Z,791.12
2017-11-24T00:14:48.632Z,791.15
2017-11-24T00:14:52.672Z,791.12
2017-11-24T00:14:56.702Z,791.13
2017-11-24T00:15:00.861Z,791.15
2017-11-24T00:15:05.146Z,791.12
2017-11-24T00:15:09.442Z,791.11
2017-11-24T00:15:13.821Z,791.14
2017-11-24T00:15:18.091Z,791.11
2017-11-24T00:15:22.366Z,791.14
2017-11-24T00:15:26.511Z,791.09
2017-11-24T00:15:30.910Z,791.12
2017-11-24T00:15:35.321Z,791.06
2017-11-24T00:15:39.589Z,791.06
2017-11-24T00:15:44.005Z,791.06
2017-11-24T00:15:48.275Z,791.09
2017-11-24T00:15:52.544Z,791.13
2017-11-24T00:15:56.814Z,791.1
2017-11-24T00:16:00.945Z,791.1
2017-11-24T00:16:05.313Z,791.08
2017-11-24T00:16:09.483Z,791.11
2017-11-24T00:16:13.668Z,791.1
2017-11-24T00:16:18.043Z,791.09
2017-11-24T00:16:22.424Z,791.1
2017-11-24T00:16:26.684Z,791.09
2017-11-24T00:16:31.068Z,791.12
2017-11-24T00:16:35.452Z,791.09
2017-11-24T00:16:39.726Z,791.12
2017-11-24T00:16:43.891Z,791.1
2017-11-24T00:16:48.253Z,791.07
2017-11-24T00:16:52.521Z,791.07
2017-11-24T00:16:56.784Z,791.09
2017-11-24T00:17:00.939Z,791.09
2017-11-24T00:17:05.203Z,791.1
2017-11-24T00:17:09.588Z,791.1
2017-11-24T00:17:13.843Z,791.1
2017-11-24T00:17:18.218Z,791.04
2017-11-24T00:17:22.375Z,791.08
2017-11-24T00:17:26.626Z,791.11
2017-11-24T00:17:30.784Z,791.11
2017-11-24T00:17:35.170Z,791.09
2017-11-24T00:17:39.530Z,791.09
2017-11-24T00:17:43.455Z,791.14
2017-11-24T00:17:47.760Z,791.09
2017-11-24T00:17:52.036Z,791.11
2017-11-24T00:17:56.303Z,791.11
2017-11-24T00:18:00.581Z,791.09
2017-11-24T00:18:04.991Z,791.13
2017-11-24T00:18:09.052Z,791.09
2017-11-24T00:18:13.432Z,791.09
2017-11-24T00:18:17.800Z,791.07
2017-11-24T00:18:22.168Z,791.06
2017-11-24T00:18:26.549Z,791.06
2017-11-24T00:18:30.951Z,791.08
2017-11-24T00:18:35.356Z,791.06
2017-11-24T00:18:39.662Z,791.09
2017-11-24T00:18:43.883Z,791.09
2017-11-24T00:18:48.026Z,791.07
2017-11-24T00:18:52.176Z,791.09
2017-11-24T00:18:56.427Z,791.09
2017-11-24T00:19:00.584Z,791.06
2017-11-24T00:19:04.959Z,791.1
2017-11-24T00:19:09.240Z,791.1
2017-11-24T00:19:13.606Z,791.07
2017-11-24T00:19:17.909Z,791.08
2017-11-24T00:19:22.173Z,791.11
2017-11-24T00:19:26.454Z,791.08
2017-11-24T00:19:30.842Z,791.07
2017-11-24T00:19:35.216Z,791.1
2017-11-24T00:19:39.412Z,791.05
2017-11-24T00:19:43.559Z,791.09
2017-11-24T00:19:47.808Z,791.09
2017-11-24T00:19:52.182Z,791.08
2017-11-24T00:19:56.462Z,791.09
2017-11-24T00:20:00.612Z,791.08
2017-11-24T00:20:04.560Z,791.03
2017-11-24T00:20:08.811Z,791.07
2017-11-24T00:20:13.090Z,791.07
2017-11-24T00:20:17.464Z,791.03
2017-11-24T00:20:21.737Z,791.05
2017-11-24T00:20:26.007Z,791.04
2017-11-24T00:20:30.403Z,791.04
2017-11-24T00:20:34.778Z,791.06
2017-11-24T00:20:39.154Z,791.06
2017-11-24T00:20:43.178Z,791.07
2017-11-24T00:20:47.419Z,791.05
2017-11-24T00:20:51.682Z,791.08
2017-11-24T00:20:55.987Z,791.06
2017-11-24T00:21:00.256Z,791.06
2017-11-24T00:21:04.416Z,791.08
2017-11-24T00:21:08.808Z,791.07
2017-11-24T00:21:13.186Z,791.07
2017-11-24T00:21:17.464Z,791.03
2017-11-24T00:21:21.705Z,791.04
2017-11-24T00:21:25.968Z,791.03
2017-11-24T00:21:30.112Z,791.06
2017-11-24T00:21:34.508Z,791.03
2017-11-24T00:21:38.672Z,791.08
2017-11-24T00:21:42.948Z,791.02
2017-11-24T00:21:47.188Z,791.03
2017-11-24T00:21:51.576Z,791.03
2017-11-24T00:21:55.955Z,791.01
2017-11-24T00:22:00.373Z,790.96
2017-11-24T00:22:04.824Z,791.03
2017-11-24T00:22:09.201Z,790.99
2017-11-24T00:22:13.455Z,791.01
2017-11-24T00:22:17.596Z,790.98
2017-11-24T00:22:21.636Z,790.97
2017-11-24T00:22:26.011Z,790.99
2017-11-24T00:22:30.265Z,790.98
2017-11-24T00:22:34.406Z,790.99
2017-11-24T00:22:38.565Z,791
2017-11-24T00:22:42.944Z,790.96
2017-11-24T00:22:47.119Z,790.99
2017-11-24T00:22:51.532Z,790.98
2017-11-24T00:22:55.709Z,790.96
2017-11-24T00:22:59.971Z,790.98
2017-11-24T00:23:04.613Z,790.98
2017-11-24T00:23:08.870Z,790.95
2017-11-24T00:23:12.898Z,790.93
2017-11-24T00:23:17.176Z,790.94
2017-11-24T00:23:21.433Z,790.94
2017-11-24T00:23:25.564Z,790.94
2017-11-24T00:23:29.928Z,790.95
2017-11-24T00:23:34.208Z,790.95
2017-11-24T00:23:38.261Z,790.92
2017-11-24T00:23:42.618Z,790.91
2017-11-24T00:23:46.900Z,790.93
2017-11-24T00:23:51.177Z,790.91
2017-11-24T00:23:55.434Z,790.9
2017-11-24T00:23:59.829Z,790.88
2017-11-24T00:24:04.203Z,790.89
2017-11-24T00:24:08.559Z,790.87
2017-11-24T00:24:12.875Z,790.87
2017-11-24T00:24:16.909Z,790.89
2017-11-24T00:24:21.289Z,790.87
2017-11-24T00:24:25.549Z,790.88
2017-11-24T00:24:29.813Z,790.86
2017-11-24T00:24:34.171Z,790.87
2017-11-24T00:24:38.347Z,790.86
2017-11-24T00:24:42.715Z,790.86
2017-11-24T00:24:47.110Z,790.86
2017-11-24T00:24:51.507Z,790.86
2017-11-24T00:24:55.751Z,790.84
2017-11-24T00:25:00.111Z,790.83
2017-11-24T00:25:04.529Z,790.8
2017-11-24T00:25:08.791Z,790.8
2017-11-24T00:25:13.059Z,790.84
2017-11-24T00:25:17.450Z,790.82
2017-11-24T00:25:21.833Z,790.78
2017-11-24T00:25:26.087Z,790.8
2017-11-24T00:25:30.354Z,790.77
2017-11-24T00:25:34.723Z,790.74
2017-11-24T00:25:38.984Z,790.79
2017-11-24T00:26:15.386Z,790.74
2017-11-24T00:26:19.753Z,790.74
2017-11-24T00:26:24.012Z,790.73
2017-11-24T00:26:28.406Z,790.7
2017-11-24T00:26:32.566Z,790.69
2017-11-24T00:26:36.833Z,790.62
2017-11-24T00:26:41.205Z,790.65
2017-11-24T00:26:45.350Z,790.63
2017-11-24T00:26:49.611Z,790.64
2017-11-24T00:26:54.010Z,790.63
2017-11-24T00:26:58.414Z,790.63
2017-11-24T00:27:02.696Z,790.66
2017-11-24T00:27:06.865Z,790.65
2017-11-24T00:27:11.219Z,790.65
2017-11-24T00:27:15.493Z,790.66
2017-11-24T00:27:19.771Z,790.6
2017-11-24T00:27:24.038Z,790.64
2017-11-24T00:27:28.297Z,790.63
2017-11-24T00:27:32.581Z,790.56
2017-11-24T00:27:36.840Z,790.56
2017-11-24T00:27:41.199Z,790.61
2017-11-24T00:27:45.338Z,790.62
2017-11-24T00:27:49.634Z,790.61
2017-11-24T00:27:53.911Z,790.62
2017-11-24T00:27:58.184Z,790.57
2017-11-24T00:28:02.459Z,790.59
2017-11-24T00:28:06.486Z,790.57
2017-11-24T00:28:10.757Z,790.58
2017-11-24T00:28:14.802Z,790.58
2017-11-24T00:28:19.066Z,790.54
2017-11-24T00:28:23.451Z,790.54
2017-11-24T00:28:27.863Z,790.56
2017-11-24T00:28:32.220Z,790.55
2017-11-24T00:28:36.610Z,790.54
2017-11-24T00:28:40.873Z,790.55
2017-11-24T00:28:44.916Z,790.5
2017-11-24T00:28:49.179Z,790.53
2017-11-24T00:28:53.334Z,790.49
2017-11-24T00:28:57.717Z,790.52
2017-11-24T00:29:02.090Z,790.5
2017-11-24T00:29:06.373Z,790.49
2017-11-24T00:29:10.762Z,790.53
2017-11-24T00:29:15.017Z,790.51
2017-11-24T00:29:19.171Z,790.49
2017-11-24T00:29:23.314Z,790.52
2017-11-24T00:29:27.565Z,790.46
2017-11-24T00:29:31.967Z,790.47
2017-11-24T00:29:36.363Z,790.47
2017-11-24T00:29:40.617Z,790.46
2017-11-24T00:29:45.006Z,790.49
2017-11-24T00:29:49.261Z,790.46
2017-11-24T00:29:53.420Z,790.48
2017-11-24T00:29:57.568Z,790.42
2017-11-24T00:30:01.836Z,790.46
2017-11-24T00:30:06.200Z,790.49
2017-11-24T00:30:10.488Z,790.44
2017-11-24T00:30:14.869Z,790.43
2017-11-24T00:30:19.257Z,790.47
2017-11-24T00:30:23.411Z,790.44
2017-11-24T00:30:27.793Z,790.42
2017-11-24T00:30:32.046Z,790.45
2017-11-24T00:30:36.421Z,790.43
2017-11-24T00:30:40.725Z,790.44
2017-11-24T00:30:45.093Z,790.43
2017-11-24T00:30:49.474Z,790.4
2017-11-24T00:30:53.873Z,790.4
2017-11-24T00:30:58.126Z,790.41
2017-11-24T00:31:02.400Z,790.37
2017-11-24T00:31:06.795Z,790.41
2017-11-24T00:31:11.059Z,790.4
2017-11-24T00:31:15.333Z,790.38
2017-11-24T00:31:19.501Z,790.38
2017-11-24T00:31:23.874Z,790.4
2017-11-24T00:31:28.121Z,790.35
2017-11-24T00:31:32.387Z,790.39
2017-11-24T00:31:36.747Z,790.39
2017-11-24T00:31:40.985Z,790.36
2017-11-24T00:31:45.149Z,790.37
2017-11-24T00:31:49.429Z,790.38
2017-11-24T00:31:53.576Z,790.37
2017-11-24T00:31:57.953Z,790.36
2017-11-24T00:32:02.458Z,790.35
2017-11-24T00:32:06.852Z,790.33
2017-11-24T00:32:11.125Z,790.35
2017-11-24T00:32:15.504Z,790.29
2017-11-24T00:32:19.671Z,790.3
2017-11-24T00:32:24.042Z,790.33
2017-11-24T00:32:28.209Z,790.32
2017-11-24T00:32:32.597Z,790.31
2017-11-24T00:32:36.878Z,790.29
2017-11-24T00:32:41.255Z,790.34
2017-11-24T00:32:45.513Z,790.3
2017-11-24T00:32:49.886Z,790.28
2017-11-24T00:32:54.253Z,790.29
2017-11-24T00:32:58.442Z,790.28
2017-11-24T00:33:02.753Z,790.25
2017-11-24T00:33:07.067Z,790.26
2017-11-24T00:33:11.357Z,790.28
2017-11-24T00:33:15.742Z,790.25
2017-11-24T00:33:20.017Z,790.29
2017-11-24T00:33:24.266Z,790.23
2017-11-24T00:33:28.540Z,790.24
2017-11-24T00:33:32.966Z,790.21
2017-11-24T00:33:37.122Z,790.22
2017-11-24T00:33:41.477Z,790.26
2017-11-24T00:33:45.629Z,790.24
2017-11-24T00:33:50.009Z,790.26
2017-11-24T00:33:54.398Z,790.26
2017-11-24T00:33:58.563Z,790.25
2017-11-24T00:34:02.877Z,790.22
2017-11-24T00:34:07.149Z,790.23
2017-11-24T00:34:11.519Z,790.25
2017-11-24T00:34:15.768Z,790.26
2017-11-24T00:34:20.053Z,790.2
2017-11-24T00:34:24.204Z,790.25
2017-11-24T00:34:28.264Z,790.25
2017-11-24T00:34:32.625Z,790.24
2017-11-24T00:34:36.901Z,790.26
2017-11-24T00:34:41.386Z,790.21
2017-11-24T00:34:45.765Z,790.25
2017-11-24T00:34:49.922Z,790.22
2017-11-24T00:34:54.071Z,790.21
2017-11-24T00:34:58.334Z,790.21
2017-11-24T00:35:02.507Z,790.22
2017-11-24T00:35:06.669Z,790.22
2017-11-24T00:35:10.812Z,790.17
2017-11-24T00:35:15.188Z,790.22
2017-11-24T00:35:19.469Z,790.22
2017-11-24T00:35:23.726Z,790.21
2017-11-24T00:35:27.878Z,790.19
2017-11-24T00:35:32.257Z,790.2
2017-11-24T00:35:36.406Z,790.2
2017-11-24T00:35:40.583Z,790.2
2017-11-24T00:35:44.973Z,790.16
2017-11-24T00:35:49.346Z,790.13
2017-11-24T00:35:53.481Z,790.21
2017-11-24T00:35:57.645Z,790.21
2017-11-24T00:36:01.920Z,790.21
2017-11-24T00:36:06.292Z,790.2
2017-11-24T00:36:10.581Z,790.21
2017-11-24T00:36:14.956Z,790.24
2017-11-24T00:36:19.219Z,790.21
2017-11-24T00:36:23.493Z,790.23
2017-11-24T00:36:27.746Z,790.2
2017-11-24T00:36:32.137Z,790.21
2017-11-24T00:36:36.515Z,790.17
2017-11-24T00:36:40.779Z,790.21
2017-11-24T00:36:44.919Z,790.25
2017-11-24T00:36:49.301Z,790.21
2017-11-24T00:36:53.605Z,790.21
2017-11-24T00:36:57.856Z,790.2
2017-11-24T00:37:02.125Z,790.22
2017-11-24T00:37:06.388Z,790.21
2017-11-24T00:37:10.790Z,790.22
2017-11-24T00:37:15.167Z,790.19
2017-11-24T00:37:19.538Z,790.23
2017-11-24T00:37:23.734Z,790.22
2017-11-24T00:37:28.119Z,790.23
2017-11-24T00:37:32.505Z,790.22
2017-11-24T00:37:36.756Z,790.26
2017-11-24T00:37:41.014Z,790.22
2017-11-24T00:37:45.294Z,790.21
2017-11-24T00:37:49.679Z,790.24
2017-11-24T00:37:54.033Z,790.22
2017-11-24T00:37:58.425Z,790.22
2017-11-24T00:38:02.489Z,790.22
2017-11-24T00:38:06.758Z,790.23
2017-11-24T00:38:10.692Z,790.22
2017-11-24T00:38:14.979Z,790.23
2017-11-24T00:38:19.362Z,790.21
2017-11-24T00:38:23.645Z,790.21
2017-11-24T00:38:28.037Z,790.21
2017-11-24T00:38:32.287Z,790.16
2017-11-24T00:38:36.543Z,790.17
2017-11-24T00:38:40.701Z,790.19
2017-11-24T00:38:44.973Z,790.18
2017-11-24T00:38:49.357Z,790.17
2017-11-24T00:38:53.514Z,790.22
2017-11-24T00:38:57.772Z,790.21
2017-11-24T00:39:02.151Z,790.2
2017-11-24T00:39:06.523Z,790.17
2017-11-24T00:39:10.809Z,790.18
2017-11-24T00:39:15.181Z,790.19
2017-11-24T00:39:19.434Z,790.19
2017-11-24T00:39:23.720Z,790.17
2017-11-24T00:39:27.851Z,790.2
2017-11-24T00:39:32.239Z,790.19
2017-11-24T00:39:36.498Z,790.19
2017-11-24T00:39:40.660Z,790.18
2017-11-24T00:39:44.912Z,790.2
2017-11-24T00:39:49.174Z,790.21
2017-11-24T00:39:53.552Z,790.2
2017-11-24T00:39:57.706Z,790.2
2017-11-24T00:40:02.093Z,790.22
2017-11-24T00:40:06.264Z,790.19
2017-11-24T00:40:10.533Z,790.13
2017-11-24T00:40:14.920Z,790.19
2017-11-24T00:40:19.278Z,790.16
2017-11-24T00:40:23.667Z,790.19
2017-11-24T00:40:27.992Z,790.18
2017-11-24T00:40:32.140Z,790.15
2017-11-24T00:40:36.506Z,790.15
2017-11-24T00:40:40.888Z,790.15
2017-11-24T00:40:45.025Z,790.13
2017-11-24T00:40:49.267Z,790.16
2017-11-24T00:40:53.424Z,790.13
2017-11-24T00:40:57.615Z,790.14
2017-11-24T00:41:01.878Z,790.13
2017-11-24T00:41:06.150Z,790.14
2017-11-24T00:41:10.425Z,790.12
2017-11-24T00:41:14.807Z,790.1
2017-11-24T00:41:19.067Z,790.14
2017-11-24T00:41:23.361Z,790.12
2017-11-24T00:41:27.726Z,790.09
2017-11-24T00:41:31.877Z,790.07
2017-11-24T00:41:36.132Z,790.12
2017-11-24T00:41:40.384Z,790.11
2017-11-24T00:41:44.765Z,790.1
2017-11-24T00:41:49.032Z,790.07
2017-11-24T00:41:53.292Z,790.09
2017-11-24T00:41:57.652Z,790.11
2017-11-24T00:42:02.221Z,790.05
2017-11-24T00:42:06.277Z,790.08
2017-11-24T00:42:10.318Z,790.08
2017-11-24T00:42:14.585Z,790.1
2017-11-24T00:42:18.865Z,790.06
2017-11-24T00:42:23.240Z,790.04
2017-11-24T00:42:27.608Z,790.03
2017-11-24T00:42:31.980Z,790.06
2017-11-24T00:42:36.117Z,790.06
2017-11-24T00:42:40.395Z,790.02
2017-11-24T00:42:44.779Z,790.03
2017-11-24T00:42:49.159Z,790.06
2017-11-24T00:42:53.435Z,790
2017-11-24T00:42:57.809Z,790.03
2017-11-24T00:43:02.184Z,790.03
2017-11-24T00:43:06.560Z,789.98
2017-11-24T00:43:10.934Z,789.99
2017-11-24T00:43:15.210Z,789.99
2017-11-24T00:43:19.483Z,790.01
2017-11-24T00:43:23.764Z,789.98
2017-11-24T00:43:28.028Z,790.04
2017-11-24T00:43:32.408Z,789.95
2017-11-24T00:43:36.593Z,790.02
2017-11-24T00:43:40.999Z,790.01
2017-11-24T00:43:45.267Z,789.92
2017-11-24T00:43:49.562Z,789.91
2017-11-24T00:43:53.858Z,789.97
2017-11-24T00:43:58.234Z,789.95
2017-11-24T00:44:02.511Z,789.94
2017-11-24T00:44:06.906Z,789.93
2017-11-24T00:44:11.169Z,789.91
2017-11-24T00:44:15.553Z,789.91
2017-11-24T00:44:19.927Z,789.94
2017-11-24T00:44:24.289Z,789.91
2017-11-24T00:44:28.668Z,789.87
2017-11-24T00:44:32.950Z,789.86
2017-11-24T00:44:37.079Z,789.84
2017-11-24T00:44:41.448Z,789.86
2017-11-24T00:44:45.769Z,789.85
2017-11-24T00:44:50.130Z,789.91
2017-11-24T00:44:54.514Z,789.85
2017-11-24T00:44:58.909Z,789.88
2017-11-24T00:45:03.073Z,789.83
2017-11-24T00:45:07.466Z,789.83
2017-11-24T00:45:11.736Z,789.84
2017-11-24T00:45:15.991Z,789.82
2017-11-24T00:45:20.266Z,789.84
2017-11-24T00:45:24.649Z,789.82
2017-11-24T00:45:28.799Z,789.82
2017-11-24T00:45:33.062Z,789.79
2017-11-24T00:45:37.326Z,789.76
2017-11-24T00:45:41.694Z,789.78
2017-11-24T00:45:46.062Z,789.77
2017-11-24T00:45:50.440Z,789.8
2017-11-24T00:45:54.808Z,789.76
2017-11-24T00:45:59.095Z,789.78
2017-11-24T00:46:03.493Z,789.79
2017-11-24T00:46:07.768Z,789.75
2017-11-24T00:46:11.703Z,789.72
2017-11-24T00:46:15.749Z,789.75
2017-11-24T00:46:19.993Z,789.77
2017-11-24T00:46:24.282Z,789.73
2017-11-24T00:46:28.533Z,789.72
2017-11-24T00:46:32.676Z,789.73
2017-11-24T00:46:36.848Z,789.73
2017-11-24T00:46:41.118Z,789.7
2017-11-24T00:46:45.402Z,789.66
2017-11-24T00:46:49.781Z,789.68
2017-11-24T00:46:54.165Z,789.68
2017-11-24T00:46:58.520Z,789.64
2017-11-24T00:47:03.098Z,789.68
2017-11-24T00:47:07.379Z,789.67
2017-11-24T00:47:11.762Z,789.65
2017-11-24T00:47:16.124Z,789.64
2017-11-24T00:47:20.518Z,789.67
2017-11-24T00:47:24.662Z,789.65
2017-11-24T00:47:29.030Z,789.59
2017-11-24T00:47:33.287Z,789.62
2017-11-24T00:47:37.571Z,789.61
2017-11-24T00:47:41.727Z,789.65
2017-11-24T00:47:45.870Z,789.61
2017-11-24T00:47:50.249Z,789.61
2017-11-24T00:47:54.600Z,789.62
2017-11-24T00:47:58.854Z,789.59
2017-11-24T00:48:03.252Z,789.6
2017-11-24T00:48:07.522Z,789.6
2017-11-24T00:48:11.777Z,789.57
2017-11-24T00:48:16.178Z,789.55
2017-11-24T00:48:20.550Z,789.54
2017-11-24T00:48:24.690Z,789.54
2017-11-24T00:48:28.972Z,789.52
2017-11-24T00:48:33.221Z,789.5
2017-11-24T00:48:37.597Z,789.53
2017-11-24T00:48:41.855Z,789.53
2017-11-24T00:48:46.104Z,789.52
2017-11-24T00:48:50.380Z,789.53
2017-11-24T00:48:54.673Z,789.5
2017-11-24T00:48:58.942Z,789.52
2017-11-24T00:49:03.391Z,789.49
2017-11-24T00:49:07.768Z,789.47
2017-11-24T00:49:11.931Z,789.44
2017-11-24T00:49:15.969Z,789.47
2017-11-24T00:49:20.118Z,789.49
2017-11-24T00:49:24.474Z,789.47
2017-11-24T00:49:28.776Z,789.45
2017-11-24T00:49:32.947Z,789.45
2017-11-24T00:49:37.314Z,789.42
2017-11-24T00:49:41.674Z,789.45
2017-11-24T00:49:45.956Z,789.46
2017-11-24T00:49:50.216Z,789.44
2017-11-24T00:49:54.588Z,789.43
2017-11-24T00:49:58.869Z,789.42
2017-11-24T00:50:03.409Z,789.41
2017-11-24T00:50:07.549Z,789.42
2017-11-24T00:50:11.933Z,789.42
2017-11-24T00:50:16.187Z,789.42
2017-11-24T00:50:20.437Z,789.38
2017-11-24T00:50:24.587Z,789.38
2017-11-24T00:50:28.742Z,789.36
2017-11-24T00:50:33.112Z,789.38
2017-11-24T00:50:37.369Z,789.37
2017-11-24T00:50:41.673Z,789.36
2017-11-24T00:50:45.839Z,789.31
2017-11-24T00:50:50.105Z,789.3
2017-11-24T00:50:54.257Z,789.31
2017-11-24T00:50:58.536Z,789.29
2017-11-24T00:51:02.916Z,789.33
2017-11-24T00:51:07.073Z,789.32
2017-11-24T00:51:11.456Z,789.31
2017-11-24T00:51:15.842Z,789.34
2017-11-24T00:51:20.022Z,789.32
2017-11-24T00:51:24.390Z,789.28
2017-11-24T00:51:28.673Z,789.29
2017-11-24T00:51:33.051Z,789.23
2017-11-24T00:51:37.413Z,789.29
2017-11-24T00:51:41.776Z,789.28
2017-11-24T00:51:46.045Z,789.25
2017-11-24T00:51:50.308Z,789.27
2017-11-24T00:51:54.586Z,789.25
2017-11-24T00:51:58.669Z,789.21
2017-11-24T00:52:03.026Z,789.22
2017-11-24T00:52:07.293Z,789.25
2017-11-24T00:52:11.668Z,789.22
2017-11-24T00:52:15.930Z,789.24
2017-11-24T00:52:20.085Z,789.23
2017-11-24T00:52:24.328Z,789.21
2017-11-24T00:52:28.584Z,789.22
2017-11-24T00:52:32.965Z,789.25
2017-11-24T00:52:37.346Z,789.25
2017-11-24T00:52:41.604Z,789.2
2017-11-24T00:52:45.973Z,789.19
2017-11-24T00:52:50.345Z,789.21
2017-11-24T00:52:54.411Z,789.19
2017-11-24T00:52:58.688Z,789.19
2017-11-24T00:53:03.336Z,789.2
2017-11-24T00:53:07.475Z,789.17
2017-11-24T00:53:11.840Z,789.17
2017-11-24T00:53:16.240Z,789.14
2017-11-24T00:53:20.397Z,789.12
2017-11-24T00:53:24.546Z,789.18
2017-11-24T00:53:28.936Z,789.17
2017-11-24T00:53:33.325Z,789.18
2017-11-24T00:53:37.592Z,789.18
2017-11-24T00:53:41.887Z,789.16
2017-11-24T00:53:46.273Z,789.16
2017-11-24T00:53:50.520Z,789.16
2017-11-24T00:53:54.791Z,789.17
2017-11-24T00:53:59.049Z,789.17
2017-11-24T00:54:03.309Z,789.17
2017-11-24T00:54:07.463Z,789.16
2017-11-24T00:54:11.725Z,789.16
2017-11-24T00:54:16.101Z,789.17